Amber Lagoon — V7FS4 — position and weather

sailwx.info

Track history (hours):
 
Tides and Currents Weather Stations Pressure Air Temp Water Temp Dewpoint Dewpoint Depression Visibility Wind Speed Wind Dir Waves Ship Positions

Amber Lagoon

Last reported at 2016-Jan-22 05:29 UTC. Time now 2016-Feb-10 10:47 UTC.
Position N 26°00' W 079°22'.
Warning: this ship's position is 19 days out of date.

Length 192 m; draft 10.1 m.

Type: Cargo ship. MMSI: 538090116.

Date/timePositionNaut miles runAvg speedWind from/ knotsBaromVisibWave heightAir tempDewpointWater temp
2016-Jan-22 05:29N 26°00' W 079°22'1617.4
2016-Jan-22 04:33N 25°45' W 079°27'  
2016-Jan-19 07:33N 29°17' W 093°40'1512.1
2016-Jan-19 06:20N 29°32' W 093°43'1114.2
2016-Jan-19 05:33N 29°41' W 093°50'1010.0
2016-Jan-19 04:31N 29°49' W 093°58'1 1.2
2016-Jan-19 03:33N 29°50' W 093°57'0 0.0
2016-Jan-19 02:33N 29°50' W 093°57'0 0.0
2016-Jan-19 01:20N 29°50' W 093°57'0 0.0
2016-Jan-19 00:32N 29°50' W 093°57'0 0.0
2016-Jan-18 22:31N 29°50' W 093°57'0 0.0
2016-Jan-18 17:16N 29°50' W 093°57'0 0.0
2016-Jan-18 16:31N 29°50' W 093°57'0 0.0
2016-Jan-18 15:31N 29°50' W 093°57'0 0.0
2016-Jan-18 14:28N 29°50' W 093°57'0 0.0
2016-Jan-18 13:31N 29°50' W 093°57'0 0.0
2016-Jan-18 12:31N 29°50' W 093°57'0 0.0
2016-Jan-18 11:31N 29°50' W 093°57'0 0.0
2016-Jan-18 10:31N 29°50' W 093°57'0 0.0
2016-Jan-18 09:31N 29°50' W 093°57'0 0.0
2016-Jan-18 08:31N 29°50' W 093°57'0 0.0
2016-Jan-18 07:31N 29°50' W 093°57'0 0.0
2016-Jan-18 06:31N 29°50' W 093°57'0 0.0
2016-Jan-18 05:22N 29°50' W 093°57'0 0.0
2016-Jan-18 04:31N 29°50' W 093°57'0 0.0
2016-Jan-18 03:16N 29°50' W 093°57'0 0.0
2016-Jan-18 02:31N 29°50' W 093°57'0 0.0
2016-Jan-18 01:31N 29°50' W 093°57'0 0.0
2016-Jan-18 00:25N 29°50' W 093°57'0 0.0
2016-Jan-17 23:13N 29°50' W 093°57'0 0.0
2016-Jan-17 22:31N 29°50' W 093°57'0 0.0
2016-Jan-17 19:19N 29°50' W 093°57'0 0.0
2016-Jan-17 14:34N 29°50' W 093°57'0 0.0
2016-Jan-16 18:18N 29°50' W 093°57'0 0.0
2016-Jan-16 16:24N 29°50' W 093°57'0 0.0
2016-Jan-16 15:30N 29°50' W 093°57'1 0.9
2016-Jan-16 14:34N 29°49' W 093°58'9 8.6
2016-Jan-16 13:33N 29°43' W 093°51'1111.1
2016-Jan-16 12:34N 29°34' W 093°44'2 2.3
2016-Jan-16 11:32N 29°34' W 093°41'0 0.0
2016-Jan-16 10:32N 29°34' W 093°41'0 0.0
2016-Jan-16 09:32N 29°34' W 093°41'0 0.0
2016-Jan-16 08:32N 29°34' W 093°41'0 0.0
2016-Jan-16 07:31N 29°34' W 093°41'0 0.0
2016-Jan-16 06:28N 29°34' W 093°41'0 0.0
2016-Jan-16 05:31N 29°34' W 093°41'0 0.0
2016-Jan-16 04:28N 29°34' W 093°41'0 0.1
2016-Jan-16 03:31N 29°34' W 093°41'0 0.0
2016-Jan-16 02:04N 29°34' W 093°41'0 0.0
2016-Jan-16 00:22N 29°34' W 093°41'0 0.0
2016-Jan-15 23:31N 29°34' W 093°41'0 0.0
2016-Jan-15 17:31N 29°34' W 093°41'0 0.0
2016-Jan-15 16:21N 29°34' W 093°41'2 2.1
2016-Jan-15 15:34N 29°33' W 093°41'2512.2
2016-Jan-15 13:32N 29°08' W 093°39'2713.4
2016-Jan-15 11:32N 28°47' W 093°21'  
2016-Jan-12 15:18N 29°57' W 089°60'0 0.0
2016-Jan-12 12:31N 29°57' W 089°60'0 0.0
2016-Jan-12 11:33N 29°57' W 089°60'0 0.0
2016-Jan-12 10:33N 29°57' W 089°60'0 0.0
2016-Jan-12 09:18N 29°57' W 089°60'  
Track history (hours):
 
Tides and Currents Weather Stations Pressure Air Temp Water Temp Dewpoint Dewpoint Depression Visibility Wind Speed Wind Dir Waves Ship Positions

Amber Lagoon

Last reported at 2016-Jan-22 05:29 UTC. Time now 2016-Feb-10 10:47 UTC.
Position N 26°00' W 079°22'.
Warning: this ship's position is 19 days out of date.

Length 192 m; draft 10.1 m.

Type: Cargo ship. MMSI: 538090116.

Date/timePositionNaut miles runAvg speedWind from/ knotsBaromVisibWave heightAir tempDewpointWater temp
2016-Jan-22 05:29N 26°00' W 079°22'1617.4
2016-Jan-22 04:33N 25°45' W 079°27'  
2016-Jan-19 07:33N 29°17' W 093°40'1512.1
2016-Jan-19 06:20N 29°32' W 093°43'1114.2
2016-Jan-19 05:33N 29°41' W 093°50'1010.0
2016-Jan-19 04:31N 29°49' W 093°58'1 1.2
2016-Jan-19 03:33N 29°50' W 093°57'0 0.0
2016-Jan-19 02:33N 29°50' W 093°57'0 0.0
2016-Jan-19 01:20N 29°50' W 093°57'0 0.0
2016-Jan-19 00:32N 29°50' W 093°57'0 0.0
2016-Jan-18 22:31N 29°50' W 093°57'0 0.0
2016-Jan-18 17:16N 29°50' W 093°57'0 0.0
2016-Jan-18 16:31N 29°50' W 093°57'0 0.0
2016-Jan-18 15:31N 29°50' W 093°57'0 0.0
2016-Jan-18 14:28N 29°50' W 093°57'0 0.0
2016-Jan-18 13:31N 29°50' W 093°57'0 0.0
2016-Jan-18 12:31N 29°50' W 093°57'0 0.0
2016-Jan-18 11:31N 29°50' W 093°57'0 0.0
2016-Jan-18 10:31N 29°50' W 093°57'0 0.0
2016-Jan-18 09:31N 29°50' W 093°57'0 0.0
2016-Jan-18 08:31N 29°50' W 093°57'0 0.0
2016-Jan-18 07:31N 29°50' W 093°57'0 0.0
2016-Jan-18 06:31N 29°50' W 093°57'0 0.0
2016-Jan-18 05:22N 29°50' W 093°57'0 0.0
2016-Jan-18 04:31N 29°50' W 093°57'0 0.0
2016-Jan-18 03:16N 29°50' W 093°57'0 0.0
2016-Jan-18 02:31N 29°50' W 093°57'0 0.0
2016-Jan-18 01:31N 29°50' W 093°57'0 0.0
2016-Jan-18 00:25N 29°50' W 093°57'0 0.0
2016-Jan-17 23:13N 29°50' W 093°57'0 0.0
2016-Jan-17 22:31N 29°50' W 093°57'0 0.0
2016-Jan-17 19:19N 29°50' W 093°57'0 0.0
2016-Jan-17 14:34N 29°50' W 093°57'0 0.0
2016-Jan-16 18:18N 29°50' W 093°57'0 0.0
2016-Jan-16 16:24N 29°50' W 093°57'0 0.0
2016-Jan-16 15:30N 29°50' W 093°57'1 0.9
2016-Jan-16 14:34N 29°49' W 093°58'9 8.6
2016-Jan-16 13:33N 29°43' W 093°51'1111.1
2016-Jan-16 12:34N 29°34' W 093°44'2 2.3
2016-Jan-16 11:32N 29°34' W 093°41'0 0.0
2016-Jan-16 10:32N 29°34' W 093°41'0 0.0
2016-Jan-16 09:32N 29°34' W 093°41'0 0.0
2016-Jan-16 08:32N 29°34' W 093°41'0 0.0
2016-Jan-16 07:31N 29°34' W 093°41'0 0.0
2016-Jan-16 06:28N 29°34' W 093°41'0 0.0
2016-Jan-16 05:31N 29°34' W 093°41'0 0.0
2016-Jan-16 04:28N 29°34' W 093°41'0 0.1
2016-Jan-16 03:31N 29°34' W 093°41'0 0.0
2016-Jan-16 02:04N 29°34' W 093°41'0 0.0
2016-Jan-16 00:22N 29°34' W 093°41'0 0.0
2016-Jan-15 23:31N 29°34' W 093°41'0 0.0
2016-Jan-15 17:31N 29°34' W 093°41'0 0.0
2016-Jan-15 16:21N 29°34' W 093°41'2 2.1
2016-Jan-15 15:34N 29°33' W 093°41'2512.2
2016-Jan-15 13:32N 29°08' W 093°39'2713.4
2016-Jan-15 11:32N 28°47' W 093°21'  
2016-Jan-12 15:18N 29°57' W 089°60'0 0.0
2016-Jan-12 12:31N 29°57' W 089°60'0 0.0
2016-Jan-12 11:33N 29°57' W 089°60'0 0.0
2016-Jan-12 10:33N 29°57' W 089°60'0 0.0
2016-Jan-12 09:18N 29°57' W 089°60'  

Dump ship's entire track history